Highlands Peak, California Weather observations

Data are for observation ending at time listed.
 Day   Time    Ave.   Ave.  Ave.  Vector   Max.   Stn.    Total    Solar   Ave.  
  of    of     Air    Rel.  Wind   Wind    Wind   Baro.  Precip.   Rad.    Soil  
Year   Day     Temp.  Hum.  Speed  Dir.    Gust   Pres.                    Temp. 
2014   (PST)    F      %     mph   deg.    mph     mb.     in.     W/m2     F   
------------------------------------------------------------------------------
 354    0:00   50.6    98    4.7   150      6.6   934.6    0.00       0    50.7
 354    0:10   50.5    98    4.7   158      6.8   934.4    0.00       0    50.7
 354    0:20   50.6    98    4.1   164      5.9   934.4    0.00       0    50.7
 354    0:30   50.6    98    4.2   163      7.3   934.3    0.01       0    50.7
 354    0:40   50.5    98    4.3   170      8.6   934.2    0.00       0    50.7
 354    0:50   50.5    98    3.1   181      6.1   934.2    0.01       0    50.8
 354    1:00   50.6    98    4.1   163      7.3   934.2    0.02       0    50.8
 354    1:10   50.6    98    5.0   151      7.1   934.2    0.01       0    50.8
 354    1:20   50.6    98    5.5   154      7.4   934.2    0.01       0    50.8
 354    1:30   50.6    98    6.1   158      8.6   934.2    0.00       0    50.8
 354    1:40   50.5    98    4.5   168      7.5   934.3    0.00       0    50.8
 354    1:50   50.5    98    5.7   147      7.7   934.3    0.00       0    50.8
 354    2:00   50.5    98    5.5   151      7.7   934.2    0.00       0    50.8
 354    2:10   50.4    98    4.2   178      7.1   934.1    0.01       0    50.8
 354    2:20   50.5    99    3.9   184      9.1   934.0    0.03       0    50.8
 354    2:30   50.5    99    3.1   185      7.0   934.0    0.01       0    50.8
 354    2:40   50.5    99    4.1   178      8.8   934.0    0.01       0    50.8
 354    2:50   50.6    99    5.6   159      9.7   933.9    0.01       0    50.9
 354    3:00   50.6    99    4.7   161      8.4   934.0    0.01       0    50.9
 354    3:10   50.6    99    4.9   174      8.2   934.2    0.00       0    50.9
 354    3:20   50.7    99    4.0   199      7.2   934.2    0.00       0    50.9
 354    3:30   50.7    99    3.6   233      6.2   934.0    0.01       0    50.9
 354    3:40   50.7    99    3.5   254      6.5   934.0    0.02       0    50.9
 354    3:50   50.7    99    4.5   230      8.6   934.0    0.02       0    50.9
 354    4:00   50.7    99    5.2   226      8.8   933.8    0.01       0    50.9
 354    4:10   50.7    99    3.8   209      8.1   933.8    0.01       0    50.9
 354    4:20   50.6    99    4.1   228      8.9   933.8    0.01       0    50.9
 354    4:30   50.6    99    3.1   222      6.6   933.6    0.01       0    50.9
 354    4:40   50.6    99    5.9   227      9.8   933.5    0.01       0    51.0
 354    4:50   50.6    99    4.2   238      6.4   933.6    0.02       0    51.0
 354    5:00   50.6    99    4.2   240      8.9   933.7    0.01       0    51.0
 354    5:10   50.6    99    6.2   247      8.6   933.8    0.00       0    51.0
 354    5:20   50.2    99    7.5   261     11.0   933.9    0.01       0    51.0
 354    5:30   50.1    99    4.6   239      8.1   933.9    0.00       0    51.0
 354    5:40   50.1    99    3.9   252      7.1   934.1    0.01       0    51.0
 354    5:50   50.1    99    2.8   260      5.4   934.1    0.00       0    51.0
 354    6:00   50.2    99    4.4   269      6.0   934.2    0.01       0    51.0
 354    6:10   50.2    99    4.4   264      6.6   934.2    0.00       0    51.0
 354    6:20   50.3    99    3.6   245      6.4   934.2    0.00       0    51.0
 354    6:30   50.3    99    2.8   235      4.1   934.2    0.00       0    51.0
 354    6:40   50.3    99    2.0   224      3.9   934.2    0.00       0    51.0
 354    6:50   50.2    99    2.9   240      4.6   934.4    0.01       0    51.0
 354    7:00   50.3    99    2.8   253      4.9   934.4    0.00       0    51.0
 354    7:10   50.3    99    2.1   251      3.5   934.4    0.00       0    51.0
 354    7:20   50.2    99    0.2   250      1.8   934.4    0.00       1    51.0
 354    7:30   50.3    99    0.5   290      2.2   934.4    0.00       2    51.0
 354    7:40   50.4    99    1.6   293      2.7   934.6    0.00       3    51.1
 354    7:50   50.5    99    0.9   206      2.1   934.6    0.00       3    51.0
 354    8:00   50.5    99    1.4   172      2.6   934.6    0.01       7    51.1
 354    8:10   50.7    99    2.0   199      4.2   934.7    0.02      34    51.1
 354    8:20   51.0    99    3.4   209      6.2   934.8    0.00      91    51.1
 354    8:30   51.2    99    3.1   227      4.7   935.1    0.00      74    51.1
 354    8:40   51.3    99    3.0   231      4.9   935.1    0.01      77    51.1
 354    8:50   51.3    99    3.3   241      5.0   935.1    0.01      62    51.1
 354    9:00   51.4    99    3.1   230      5.6   935.2    0.00      76    51.1
 354    9:10   51.4    99    4.8   254      7.5   935.4    0.01      78    51.2
 354    9:20   51.5    99    6.8   268      9.8   935.7    0.00      65    51.2
 354    9:30   51.5    99    7.1   270     10.2   936.0    0.01      74    51.3
 354    9:40   51.5    99    4.6   275      7.4   936.0    0.00      96    51.4
 354    9:50   51.4    99    4.2   266      7.0   936.0    0.00      70    51.4
 354   10:00   51.3    99    6.9   272     13.4   936.1    0.03      45    51.5
 354   10:10   51.1    99    6.4   282     11.2   936.0    0.02      84    51.6
 354   10:20   51.2    99    4.5   280      6.9   936.0    0.00     117    51.7
 354   10:30   51.2    99    5.7   274      8.3   936.2    0.00      75    51.7
 354   10:40   51.3    99    5.3   277      7.8   936.4    0.00      98    51.7
 354   10:50   51.2    99    4.3   285      7.8   936.2    0.00     106    51.8
 354   11:00   51.4    99    4.6   279      6.6   936.1    0.00     180    51.9
 354   11:10   51.7    99    6.5   285      9.1   936.2    0.00     198    51.9
 354   11:20   51.6    99    4.8   285      7.8   936.2    0.00     120    52.0
 354   11:30   51.6    99    4.0   282      5.9   936.1    0.00     236    52.1
 354   11:40   52.2    99    3.5   283      5.6   935.9    0.00     301    52.1
 354   11:50   52.2    99    3.0   323      4.7   935.6    0.00     448    52.2
 354   12:00   52.2    99    4.1   289      7.4   935.7    0.00     306    52.4
 354   12:10   52.6    99    4.5   274      8.1   935.6    0.00     380    52.5
 354   12:20   52.5    99    4.4   271      6.3   935.6    0.00     417    52.6
 354   12:30   52.6    99    4.0   278      6.4   935.5    0.00     316    52.8
 354   12:40   52.3    99    4.9   269      7.9   935.6    0.00     333    52.9
 354   12:50   52.2    99    3.0   268      6.9   935.5    0.00     282    53.1
 354   13:00   51.8    99    1.8   258      3.9   935.2    0.00     491    53.2
 354   13:10   52.1    99    3.2   244      6.4   935.1    0.00     395    53.4
 354   13:20   52.1    99    4.2   263      6.0   935.1    0.00     247    53.6
 354   13:30   51.9    99    3.8   266      5.6   935.0    0.00     276    53.8
 354   13:40   52.3    99    5.0   283      7.4   935.3    0.00     251    53.9
 354   13:50   52.0    99    4.5   290      6.7   935.4    0.00     347    54.0
 354   14:00   52.3    99    2.4   279      5.8   935.2    0.00     382    54.2
 354   14:10   53.0    99    3.1   291      5.6   935.4    0.00     368    54.3
 354   14:20   52.6    99    4.2   266      7.2   935.2    0.00     368    54.5
 354   14:30   51.9    99    2.8   256      6.2   935.1    0.00     238    54.7
 354   14:40   52.1    99    1.8   280      4.8   935.1    0.00     226    54.8
 354   14:50   51.4    99    2.9   290      5.8   935.2    0.00     110    54.9
 354   15:00   51.2    99    3.7   310      8.6   935.4    0.00     115    55.0
 354   15:10   50.6    99    4.3   312      7.7   935.4    0.00     113    55.1
 354   15:20   50.8    99    4.2   320      7.2   935.5    0.00     150    55.2
 354   15:30   51.1    99    3.0   286      4.7   935.6    0.00     109    55.2
 354   15:40   51.0    99    4.1   306      6.0   935.7    0.00      74    55.3
 354   15:50   51.0    99    4.8   282      7.0   935.7    0.00      51    55.3
 354   16:00   50.3    99    2.6   337      4.6   935.6    0.00      57    55.3
 354   16:10   50.3    99    3.5    62      5.4   935.5    0.00      59    55.3
 354   16:20   49.9    99    4.0    10      5.8   935.6    0.00      45    55.3
 354   16:30   50.1    99    3.8    44      5.6   935.6    0.00      30    55.3
 354   16:40   50.4    98    4.4   345      5.1   935.6    0.00      17    55.2
 354   16:50   50.3    98    4.2   304      5.6   935.7    0.00       7    55.2
 354   17:00   50.1    98    2.6   312      5.1   935.9    0.00       1    55.1
 354   17:10   50.1    98    2.3    16      2.9   936.0    0.00       0    55.1
 354   17:20   50.1    98    2.4    44      3.4   936.0    0.00       0    55.0
 354   17:30   50.3    98    4.0   311      6.9   936.1    0.00       0    55.0
 354   17:40   50.2    98    5.7   312      7.1   936.2    0.00       0    54.9
 354   17:50   50.3    98    5.3   315      7.6   936.2    0.00       0    54.8
 354   18:00   50.3    97    3.8     1      7.9   936.2    0.00       0    54.8
 354   18:10   50.4    94    5.6   318      9.6   936.4    0.00       0    54.7
 354   18:20   51.3    84    5.9   329     10.7   936.4    0.00       0    54.6
 354   18:30   51.4    81    6.7   320     10.2   936.5    0.00       0    54.5
 354   18:40   50.6    85    7.7   314     10.3   936.6    0.00       0    54.4
 354   18:50   50.3    84    5.7   322      8.3   936.6    0.00       0    54.4
 354   19:00   50.9    79    4.9   347      7.4   936.7    0.00       0    54.3
 354   19:10   51.2    78    4.7   331      8.3   936.7    0.00       0    54.2
 354   19:20   50.9    78    6.9   300     10.2   936.8    0.00       0    54.1
 354   19:30   50.9    79    8.7   304     11.0   937.0    0.00       0    54.0
 354   19:40   50.9    80    8.7   315     10.7   937.1    0.00       0    53.9
 354   19:50   51.1    79    8.6   311     11.2   937.1    0.00       0    53.7
 354   20:00   51.0    79    6.8   306      9.9   937.1    0.00       0    53.7
 354   20:10   51.0    78    7.7   321     10.4   937.1    0.00       0    53.6
 354   20:20   51.1    79    7.8   304      9.9   937.1    0.00       0    53.5
 354   20:30   50.2    83    7.9   306      9.9   937.3    0.00       0    53.4
 354   20:40   50.3    83    9.0   307     13.4   937.3    0.00       0    53.3
 354   20:50   50.7    81   10.0   311     13.4   937.4    0.00       0    53.2
 354   21:00   51.2    80    8.4   304     13.3   937.4    0.00       0    53.1
 354   21:10   50.6    82    9.2   306     12.3   937.5    0.00       0    53.0
 354   21:20   50.9    81    9.1   313     12.1   937.6    0.00       0    52.9
 354   21:30   51.0    81    7.0   315      8.7   937.6    0.00       0    52.9
 354   21:40   51.1    81    6.9   304      9.1   937.7    0.00       0    52.8
 354   21:50   50.8    81    7.5   299      8.6   937.7    0.00       0    52.7
 354   22:00   50.3    81    7.1   295      8.2   937.9    0.00       0    52.6
 354   22:10   49.8    82    5.3   307      7.5   937.8    0.00       0    52.6
 354   22:20   50.9    78    6.3   318      9.4   937.8    0.00       0    52.5
 354   22:30   51.6    78    6.6   316      9.4   937.9    0.00       0    52.4
 354   22:40   50.4    80    5.5   304      7.0   937.9    0.00       0    52.4
 354   22:50   49.7    83    6.1   300      8.0   937.9    0.00       0    52.3
 354   23:00   49.0    86    4.6   305      6.5   937.9    0.00       0    52.2
 354   23:10   48.8    86    4.9   323      6.3   938.0    0.00       0    52.2
 354   23:20   51.2    81    5.1   320      7.7   937.9    0.00       0    52.1
 354   23:30   50.7    80    6.1   307      9.1   937.9    0.00       0    52.0
 354   23:40   50.5    82    5.6   300      8.3   937.8    0.00       0    51.9

Return to Highlands Peak graphs page.


Western Regional Climate Center,wrcc@dri.edu